KHRL/HRL METAR and TAF weather

Enter ICAO airport designator
Station Type Date Time Source
KHRL METAR 2019/06/18 11:52 UTC NOAA

KHRL 181152Z 12006KT 5SM BR CLR 25/24 A2987 RMK AO2 SLP115 T02500239 10261 20244 53003


Station Type Date Time Source
KHRL Decoded METAR 2019/06/18 11:52 UTC NOAA

RIO GRANDE VALLEY, TX, United States (KHRL) 26-13N 97-39W 10M
Jun 18, 2019 - 07:52 AM EDT / 2019.06.18 1152 UTC
Wind: from the ESE (120 degrees) at 7 MPH (6 KT):0
Visibility: 5 mile(s):0
Sky conditions: clear
Weather: mist
Temperature: 77.0 F (25.0 C)
Dew Point: 75.0 F (23.9 C)
Relative Humidity: 93%
Pressure (altimeter): 29.87 in. Hg (1011 hPa)
Pressure tendency: 0.01 inches (0.3 hPa) higher than three hours ago
ob: KHRL 181152Z 12006KT 5SM BR CLR 25/24 A2987 RMK AO2 SLP115 T02500239 10261 20244 53003
cycle: 12

Station Type Date Time Source
KHRL TAF 2019/06/18 12:22 UTC NOAA

TAF KHRL 181120Z 1812/1912 13005KT P6SM FEW025 SCT250
FM181400 16010KT P6SM SCT035
FM181900 13013G18KT P6SM SCT045
FM190200 15007KT P6SM FEW250

Example: see airport list